sensor_id;sensor_type;location;lat;lon;timestamp;temperature;humidity
12384;DHT22;6256;63.808;20.336;2022-08-01T00:01:51;15.60;99.90
12384;DHT22;6256;63.808;20.336;2022-08-01T00:04:17;15.60;99.90
12384;DHT22;6256;63.808;20.336;2022-08-01T00:06:43;15.60;99.90
12384;DHT22;6256;63.808;20.336;2022-08-01T00:09:08;15.50;99.90
12384;DHT22;6256;63.808;20.336;2022-08-01T00:11:34;15.50;99.90
12384;DHT22;6256;63.808;20.336;2022-08-01T00:14:00;15.50;99.90
12384;DHT22;6256;63.808;20.336;2022-08-01T00:16:26;15.40;99.90
12384;DHT22;6256;63.808;20.336;2022-08-01T00:18:52;15.40;99.90
12384;DHT22;6256;63.808;20.336;2022-08-01T00:21:17;15.30;99.90
12384;DHT22;6256;63.808;20.336;2022-08-01T00:23:43;15.30;99.90
12384;DHT22;6256;63.808;20.336;2022-08-01T00:26:14;15.20;99.90
12384;DHT22;6256;63.808;20.336;2022-08-01T00:28:43;15.20;99.90
12384;DHT22;6256;63.808;20.336;2022-08-01T00:31:09;15.10;99.90
12384;DHT22;6256;63.808;20.336;2022-08-01T00:33:35;15.10;99.90
12384;DHT22;6256;63.808;20.336;2022-08-01T00:36:00;15.10;99.90
12384;DHT22;6256;63.808;20.336;2022-08-01T00:38:26;15.10;99.90
12384;DHT22;6256;63.808;20.336;2022-08-01T00:40:52;15.00;99.90
12384;DHT22;6256;63.808;20.336;2022-08-01T00:43:17;15.00;99.90
12384;DHT22;6256;63.808;20.336;2022-08-01T00:45:43;15.00;99.90
12384;DHT22;6256;63.808;20.336;2022-08-01T00:48:09;15.00;99.90
12384;DHT22;6256;63.808;20.336;2022-08-01T00:50:35;15.00;99.90
12384;DHT22;6256;63.808;20.336;2022-08-01T00:53:02;15.00;99.90
12384;DHT22;6256;63.808;20.336;2022-08-01T00:55:29;15.00;99.90
12384;DHT22;6256;63.808;20.336;2022-08-01T00:57:56;15.00;99.90
12384;DHT22;6256;63.808;20.336;2022-08-01T01:00:22;14.90;99.90
12384;DHT22;6256;63.808;20.336;2022-08-01T01:02:48;14.90;99.90
12384;DHT22;6256;63.808;20.336;2022-08-01T01:05:14;14.90;99.90
12384;DHT22;6256;63.808;20.336;2022-08-01T01:16:12;14.80;99.90
12384;DHT22;6256;63.808;20.336;2022-08-01T01:18:51;14.80;99.90
12384;DHT22;6256;63.808;20.336;2022-08-01T01:32:19;14.40;99.90
12384;DHT22;6256;63.808;20.336;2022-08-01T01:34:49;14.40;99.90
12384;DHT22;6256;63.808;20.336;2022-08-01T01:37:21;14.30;99.90
12384;DHT22;6256;63.808;20.336;2022-08-01T01:39:49;14.20;99.90
12384;DHT22;6256;63.808;20.336;2022-08-01T01:42:17;14.10;99.90
12384;DHT22;6256;63.808;20.336;2022-08-01T01:44:47;14.10;99.90
12384;DHT22;6256;63.808;20.336;2022-08-01T01:47:14;14.10;99.90
12384;DHT22;6256;63.808;20.336;2022-08-01T01:49:41;14.00;99.90
12384;DHT22;6256;63.808;20.336;2022-08-01T01:52:09;14.00;99.90
12384;DHT22;6256;63.808;20.336;2022-08-01T01:57:09;13.90;99.90
12384;DHT22;6256;63.808;20.336;2022-08-01T01:59:38;13.90;99.90
12384;DHT22;6256;63.808;20.336;2022-08-01T02:02:06;13.80;99.90
12384;DHT22;6256;63.808;20.336;2022-08-01T02:04:36;13.70;99.90
12384;DHT22;6256;63.808;20.336;2022-08-01T02:07:04;13.70;99.90
12384;DHT22;6256;63.808;20.336;2022-08-01T02:09:34;13.60;99.90
12384;DHT22;6256;63.808;20.336;2022-08-01T02:12:01;13.60;99.90
12384;DHT22;6256;63.808;20.336;2022-08-01T02:14:28;13.60;99.90
12384;DHT22;6256;63.808;20.336;2022-08-01T02:16:55;13.50;99.90
12384;DHT22;6256;63.808;20.336;2022-08-01T02:19:22;13.50;99.90
12384;DHT22;6256;63.808;20.336;2022-08-01T02:21:56;13.50;99.90
12384;DHT22;6256;63.808;20.336;2022-08-01T02:24:35;13.50;99.90
12384;DHT22;6256;63.808;20.336;2022-08-01T02:27:10;13.50;99.90
12384;DHT22;6256;63.808;20.336;2022-08-01T02:29:49;13.40;99.90
12384;DHT22;6256;63.808;20.336;2022-08-01T02:32:24;13.40;99.90
12384;DHT22;6256;63.808;20.336;2022-08-01T02:34:51;13.40;99.90
12384;DHT22;6256;63.808;20.336;2022-08-01T02:37:19;13.40;99.90
12384;DHT22;6256;63.808;20.336;2022-08-01T02:39:48;13.40;99.90
12384;DHT22;6256;63.808;20.336;2022-08-01T02:42:18;13.40;99.90
12384;DHT22;6256;63.808;20.336;2022-08-01T02:44:46;13.40;99.90
12384;DHT22;6256;63.808;20.336;2022-08-01T02:47:13;13.30;99.90
12384;DHT22;6256;63.808;20.336;2022-08-01T02:49:43;13.40;99.90
12384;DHT22;6256;63.808;20.336;2022-08-01T02:52:12;13.40;99.90
12384;DHT22;6256;63.808;20.336;2022-08-01T02:54:40;13.40;99.90
12384;DHT22;6256;63.808;20.336;2022-08-01T02:57:08;13.40;99.90
12384;DHT22;6256;63.808;20.336;2022-08-01T02:59:37;13.40;99.90
12384;DHT22;6256;63.808;20.336;2022-08-01T03:02:04;13.50;99.90
12384;DHT22;6256;63.808;20.336;2022-08-01T03:04:33;13.50;99.90
12384;DHT22;6256;63.808;20.336;2022-08-01T03:07:00;13.50;99.90
12384;DHT22;6256;63.808;20.336;2022-08-01T03:09:30;13.60;99.90
12384;DHT22;6256;63.808;20.336;2022-08-01T03:11:59;13.60;99.90
12384;DHT22;6256;63.808;20.336;2022-08-01T03:14:27;13.60;99.90
12384;DHT22;6256;63.808;20.336;2022-08-01T03:16:54;13.70;99.90
12384;DHT22;6256;63.808;20.336;2022-08-01T03:19:24;13.70;99.90
12384;DHT22;6256;63.808;20.336;2022-08-01T03:21:52;13.70;99.90
12384;DHT22;6256;63.808;20.336;2022-08-01T03:24:19;13.70;99.90
12384;DHT22;6256;63.808;20.336;2022-08-01T03:26:47;13.80;99.90
12384;DHT22;6256;63.808;20.336;2022-08-01T03:29:18;13.80;99.90
12384;DHT22;6256;63.808;20.336;2022-08-01T03:31:46;13.80;99.90
12384;DHT22;6256;63.808;20.336;2022-08-01T03:34:13;13.80;99.90
12384;DHT22;6256;63.808;20.336;2022-08-01T03:36:49;13.90;99.90
12384;DHT22;6256;63.808;20.336;2022-08-01T03:39:18;13.90;99.90
12384;DHT22;6256;63.808;20.336;2022-08-01T03:41:52;14.00;99.90
12384;DHT22;6256;63.808;20.336;2022-08-01T03:44:24;14.00;99.90
12384;DHT22;6256;63.808;20.336;2022-08-01T03:46:56;14.10;99.90
12384;DHT22;6256;63.808;20.336;2022-08-01T03:49:29;14.10;99.90
12384;DHT22;6256;63.808;20.336;2022-08-01T03:51:57;14.10;99.90
12384;DHT22;6256;63.808;20.336;2022-08-01T03:54:25;14.20;99.90
12384;DHT22;6256;63.808;20.336;2022-08-01T03:56:53;14.20;99.90
12384;DHT22;6256;63.808;20.336;2022-08-01T03:59:20;14.20;99.90
12384;DHT22;6256;63.808;20.336;2022-08-01T04:01:47;14.30;99.90
12384;DHT22;6256;63.808;20.336;2022-08-01T04:04:14;14.30;99.90
12384;DHT22;6256;63.808;20.336;2022-08-01T04:06:40;14.40;99.90
12384;DHT22;6256;63.808;20.336;2022-08-01T04:09:07;14.40;99.90
12384;DHT22;6256;63.808;20.336;2022-08-01T04:11:33;14.50;99.90
12384;DHT22;6256;63.808;20.336;2022-08-01T04:13:59;14.50;99.90
12384;DHT22;6256;63.808;20.336;2022-08-01T04:16:25;14.60;99.90
12384;DHT22;6256;63.808;20.336;2022-08-01T04:18:51;14.60;99.90
12384;DHT22;6256;63.808;20.336;2022-08-01T04:21:23;14.70;99.90
12384;DHT22;6256;63.808;20.336;2022-08-01T04:23:51;14.80;99.90
12384;DHT22;6256;63.808;20.336;2022-08-01T04:26:18;14.80;99.90
12384;DHT22;6256;63.808;20.336;2022-08-01T04:28:45;14.90;99.90
12384;DHT22;6256;63.808;20.336;2022-08-01T04:31:13;15.00;99.90
12384;DHT22;6256;63.808;20.336;2022-08-01T04:33:46;15.00;99.90
12384;DHT22;6256;63.808;20.336;2022-08-01T04:36:14;15.10;99.90
12384;DHT22;6256;63.808;20.336;2022-08-01T04:38:42;15.20;99.90
12384;DHT22;6256;63.808;20.336;2022-08-01T04:41:10;15.20;99.90
12384;DHT22;6256;63.808;20.336;2022-08-01T04:43:37;15.30;99.90
12384;DHT22;6256;63.808;20.336;2022-08-01T04:46:03;15.40;99.90
12384;DHT22;6256;63.808;20.336;2022-08-01T04:48:32;15.40;99.90
12384;DHT22;6256;63.808;20.336;2022-08-01T04:50:59;15.50;99.90
12384;DHT22;6256;63.808;20.336;2022-08-01T04:53:24;15.50;99.90
12384;DHT22;6256;63.808;20.336;2022-08-01T04:55:51;15.60;99.90
12384;DHT22;6256;63.808;20.336;2022-08-01T04:58:17;15.70;99.90
12384;DHT22;6256;63.808;20.336;2022-08-01T05:00:43;15.90;99.90
12384;DHT22;6256;63.808;20.336;2022-08-01T05:03:09;16.00;99.90
12384;DHT22;6256;63.808;20.336;2022-08-01T05:05:35;16.20;99.90
12384;DHT22;6256;63.808;20.336;2022-08-01T05:08:01;16.40;99.90
12384;DHT22;6256;63.808;20.336;2022-08-01T05:10:27;16.60;99.90
12384;DHT22;6256;63.808;20.336;2022-08-01T05:12:53;16.90;99.90
12384;DHT22;6256;63.808;20.336;2022-08-01T05:15:19;17.00;99.90
12384;DHT22;6256;63.808;20.336;2022-08-01T05:17:45;17.10;99.90
12384;DHT22;6256;63.808;20.336;2022-08-01T05:20:11;17.10;99.90
12384;DHT22;6256;63.808;20.336;2022-08-01T05:22:37;17.30;99.90
12384;DHT22;6256;63.808;20.336;2022-08-01T05:25:04;17.40;99.90
12384;DHT22;6256;63.808;20.336;2022-08-01T05:27:32;17.50;99.90
12384;DHT22;6256;63.808;20.336;2022-08-01T05:30:03;17.60;99.90
12384;DHT22;6256;63.808;20.336;2022-08-01T05:32:29;17.70;99.90
12384;DHT22;6256;63.808;20.336;2022-08-01T05:34:55;17.90;99.90
12384;DHT22;6256;63.808;20.336;2022-08-01T05:37:21;18.00;99.90
12384;DHT22;6256;63.808;20.336;2022-08-01T05:39:47;18.20;99.90
12384;DHT22;6256;63.808;20.336;2022-08-01T05:42:12;18.30;99.90
12384;DHT22;6256;63.808;20.336;2022-08-01T05:44:38;18.40;99.90
12384;DHT22;6256;63.808;20.336;2022-08-01T05:47:04;18.50;99.90
12384;DHT22;6256;63.808;20.336;2022-08-01T05:49:29;18.60;99.90
12384;DHT22;6256;63.808;20.336;2022-08-01T05:51:55;18.70;99.90
12384;DHT22;6256;63.808;20.336;2022-08-01T05:54:21;18.80;99.90
12384;DHT22;6256;63.808;20.336;2022-08-01T05:56:46;18.90;99.90
12384;DHT22;6256;63.808;20.336;2022-08-01T05:59:12;19.00;99.90
12384;DHT22;6256;63.808;20.336;2022-08-01T06:01:38;19.00;99.90
12384;DHT22;6256;63.808;20.336;2022-08-01T06:04:03;19.10;99.90
12384;DHT22;6256;63.808;20.336;2022-08-01T06:06:29;19.30;99.90
12384;DHT22;6256;63.808;20.336;2022-08-01T06:08:55;19.50;99.90
12384;DHT22;6256;63.808;20.336;2022-08-01T06:11:21;19.60;99.90
12384;DHT22;6256;63.808;20.336;2022-08-01T06:13:46;19.70;99.90
12384;DHT22;6256;63.808;20.336;2022-08-01T06:16:12;19.70;99.90
12384;DHT22;6256;63.808;20.336;2022-08-01T06:18:38;19.80;99.90
12384;DHT22;6256;63.808;20.336;2022-08-01T06:21:03;19.90;99.90
12384;DHT22;6256;63.808;20.336;2022-08-01T06:23:29;19.90;99.90
12384;DHT22;6256;63.808;20.336;2022-08-01T06:25:55;19.90;99.90
12384;DHT22;6256;63.808;20.336;2022-08-01T06:28:21;19.90;99.90
12384;DHT22;6256;63.808;20.336;2022-08-01T06:30:47;20.00;99.90
12384;DHT22;6256;63.808;20.336;2022-08-01T06:33:13;20.10;99.90
12384;DHT22;6256;63.808;20.336;2022-08-01T06:35:39;20.10;99.90
12384;DHT22;6256;63.808;20.336;2022-08-01T06:38:05;20.00;99.90
12384;DHT22;6256;63.808;20.336;2022-08-01T06:40:31;19.80;99.90
12384;DHT22;6256;63.808;20.336;2022-08-01T06:42:57;19.80;99.90
12384;DHT22;6256;63.808;20.336;2022-08-01T06:45:23;19.90;99.90
12384;DHT22;6256;63.808;20.336;2022-08-01T06:47:50;19.90;99.90
12384;DHT22;6256;63.808;20.336;2022-08-01T06:50:15;20.00;99.90
12384;DHT22;6256;63.808;20.336;2022-08-01T06:52:41;20.00;99.90
12384;DHT22;6256;63.808;20.336;2022-08-01T06:55:07;20.10;99.90
12384;DHT22;6256;63.808;20.336;2022-08-01T06:57:34;20.00;99.90
12384;DHT22;6256;63.808;20.336;2022-08-01T07:00:07;20.00;99.90
12384;DHT22;6256;63.808;20.336;2022-08-01T07:02:35;20.00;99.90
12384;DHT22;6256;63.808;20.336;2022-08-01T07:05:02;19.90;99.90
12384;DHT22;6256;63.808;20.336;2022-08-01T07:07:29;19.80;99.90
12384;DHT22;6256;63.808;20.336;2022-08-01T07:09:56;19.70;99.90
12384;DHT22;6256;63.808;20.336;2022-08-01T07:12:21;19.80;99.90
12384;DHT22;6256;63.808;20.336;2022-08-01T07:14:47;19.90;99.90
12384;DHT22;6256;63.808;20.336;2022-08-01T07:17:13;19.90;99.90
12384;DHT22;6256;63.808;20.336;2022-08-01T07:19:39;19.90;99.90
12384;DHT22;6256;63.808;20.336;2022-08-01T07:22:05;20.10;99.90
12384;DHT22;6256;63.808;20.336;2022-08-01T07:24:30;20.30;99.90
12384;DHT22;6256;63.808;20.336;2022-08-01T07:26:57;20.30;99.90
12384;DHT22;6256;63.808;20.336;2022-08-01T07:29:26;20.50;99.90
12384;DHT22;6256;63.808;20.336;2022-08-01T07:31:53;20.60;99.90
12384;DHT22;6256;63.808;20.336;2022-08-01T07:34:19;20.50;99.90
12384;DHT22;6256;63.808;20.336;2022-08-01T07:36:45;20.50;99.90
12384;DHT22;6256;63.808;20.336;2022-08-01T07:39:11;20.40;99.90
12384;DHT22;6256;63.808;20.336;2022-08-01T07:41:37;20.40;99.90
12384;DHT22;6256;63.808;20.336;2022-08-01T07:44:02;20.50;99.90
12384;DHT22;6256;63.808;20.336;2022-08-01T07:46:28;20.50;99.90
12384;DHT22;6256;63.808;20.336;2022-08-01T07:48:55;20.50;99.90
12384;DHT22;6256;63.808;20.336;2022-08-01T07:51:21;20.50;99.90
12384;DHT22;6256;63.808;20.336;2022-08-01T07:53:47;20.50;99.90
12384;DHT22;6256;63.808;20.336;2022-08-01T07:56:13;20.50;99.90
12384;DHT22;6256;63.808;20.336;2022-08-01T07:58:38;20.50;99.90
12384;DHT22;6256;63.808;20.336;2022-08-01T08:01:04;20.60;99.90
12384;DHT22;6256;63.808;20.336;2022-08-01T08:03:30;20.50;99.90
12384;DHT22;6256;63.808;20.336;2022-08-01T08:05:56;20.50;99.90
12384;DHT22;6256;63.808;20.336;2022-08-01T08:08:21;20.50;99.90
12384;DHT22;6256;63.808;20.336;2022-08-01T08:10:47;20.50;99.90
12384;DHT22;6256;63.808;20.336;2022-08-01T08:13:13;20.50;99.90
12384;DHT22;6256;63.808;20.336;2022-08-01T08:15:39;20.60;99.90
12384;DHT22;6256;63.808;20.336;2022-08-01T08:18:05;20.70;99.90
12384;DHT22;6256;63.808;20.336;2022-08-01T08:20:30;20.70;99.90
12384;DHT22;6256;63.808;20.336;2022-08-01T08:22:56;20.70;99.90
12384;DHT22;6256;63.808;20.336;2022-08-01T08:25:24;20.80;99.90
12384;DHT22;6256;63.808;20.336;2022-08-01T08:27:51;20.80;99.90
12384;DHT22;6256;63.808;20.336;2022-08-01T08:30:16;20.90;99.90
12384;DHT22;6256;63.808;20.336;2022-08-01T08:32:42;21.00;99.90
12384;DHT22;6256;63.808;20.336;2022-08-01T08:35:08;21.10;99.90
12384;DHT22;6256;63.808;20.336;2022-08-01T08:37:35;21.10;99.90
12384;DHT22;6256;63.808;20.336;2022-08-01T08:40:02;21.10;99.90
12384;DHT22;6256;63.808;20.336;2022-08-01T08:42:28;21.10;99.90
12384;DHT22;6256;63.808;20.336;2022-08-01T08:44:54;21.30;99.90
12384;DHT22;6256;63.808;20.336;2022-08-01T08:47:22;21.40;99.90
12384;DHT22;6256;63.808;20.336;2022-08-01T08:49:50;21.50;99.90
12384;DHT22;6256;63.808;20.336;2022-08-01T08:52:19;21.60;99.90
12384;DHT22;6256;63.808;20.336;2022-08-01T08:54:46;21.70;99.90
12384;DHT22;6256;63.808;20.336;2022-08-01T08:57:14;21.70;99.90
12384;DHT22;6256;63.808;20.336;2022-08-01T08:59:42;21.70;99.90
12384;DHT22;6256;63.808;20.336;2022-08-01T09:02:08;21.70;99.90
12384;DHT22;6256;63.808;20.336;2022-08-01T09:04:35;21.80;99.90
12384;DHT22;6256;63.808;20.336;2022-08-01T09:07:04;21.80;99.90
12384;DHT22;6256;63.808;20.336;2022-08-01T09:09:29;22.00;99.90
12384;DHT22;6256;63.808;20.336;2022-08-01T09:11:55;22.10;99.90
12384;DHT22;6256;63.808;20.336;2022-08-01T09:14:22;22.20;99.90
12384;DHT22;6256;63.808;20.336;2022-08-01T09:17:03;22.50;99.90
12384;DHT22;6256;63.808;20.336;2022-08-01T09:22:03;22.20;99.90
12384;DHT22;6256;63.808;20.336;2022-08-01T09:24:30;22.40;99.90
12384;DHT22;6256;63.808;20.336;2022-08-01T09:26:57;22.60;99.90
12384;DHT22;6256;63.808;20.336;2022-08-01T09:29:28;22.70;99.90
12384;DHT22;6256;63.808;20.336;2022-08-01T09:31:55;22.80;99.90
12384;DHT22;6256;63.808;20.336;2022-08-01T09:34:29;22.80;99.90
12384;DHT22;6256;63.808;20.336;2022-08-01T09:36:57;22.70;99.90
12384;DHT22;6256;63.808;20.336;2022-08-01T09:39:32;22.40;99.90
12384;DHT22;6256;63.808;20.336;2022-08-01T09:42:22;22.40;99.90
12384;DHT22;6256;63.808;20.336;2022-08-01T09:44:49;22.30;99.90
12384;DHT22;6256;63.808;20.336;2022-08-01T09:47:15;22.60;99.90
12384;DHT22;6256;63.808;20.336;2022-08-01T09:49:52;22.70;99.90
12384;DHT22;6256;63.808;20.336;2022-08-01T09:52:21;22.60;99.90
12384;DHT22;6256;63.808;20.336;2022-08-01T09:54:56;22.10;99.90
12384;DHT22;6256;63.808;20.336;2022-08-01T09:57:22;21.90;99.90
12384;DHT22;6256;63.808;20.336;2022-08-01T09:59:52;22.00;99.90
12384;DHT22;6256;63.808;20.336;2022-08-01T10:02:46;22.20;99.90
12384;DHT22;6256;63.808;20.336;2022-08-01T10:05:12;22.30;99.90
12384;DHT22;6256;63.808;20.336;2022-08-01T10:07:59;22.30;99.90
12384;DHT22;6256;63.808;20.336;2022-08-01T10:10:25;22.30;99.90
12384;DHT22;6256;63.808;20.336;2022-08-01T10:12:51;22.10;99.90
12384;DHT22;6256;63.808;20.336;2022-08-01T10:15:18;22.20;99.90
12384;DHT22;6256;63.808;20.336;2022-08-01T10:17:59;22.30;99.90
12384;DHT22;6256;63.808;20.336;2022-08-01T10:20:31;22.20;99.90
12384;DHT22;6256;63.808;20.336;2022-08-01T10:23:03;22.20;99.90
12384;DHT22;6256;63.808;20.336;2022-08-01T10:25:34;22.20;99.90
12384;DHT22;6256;63.808;20.336;2022-08-01T10:28:02;22.10;99.90
12384;DHT22;6256;63.808;20.336;2022-08-01T10:30:30;22.10;99.90
12384;DHT22;6256;63.808;20.336;2022-08-01T10:32:56;22.00;99.90
12384;DHT22;6256;63.808;20.336;2022-08-01T10:35:22;22.10;99.90
12384;DHT22;6256;63.808;20.336;2022-08-01T10:37:48;21.90;99.90
12384;DHT22;6256;63.808;20.336;2022-08-01T10:40:16;22.00;99.90
12384;DHT22;6256;63.808;20.336;2022-08-01T10:42:43;21.80;99.90
12384;DHT22;6256;63.808;20.336;2022-08-01T10:45:14;21.80;99.90
12384;DHT22;6256;63.808;20.336;2022-08-01T10:50:41;21.60;99.90
12384;DHT22;6256;63.808;20.336;2022-08-01T10:53:15;21.40;99.90
12384;DHT22;6256;63.808;20.336;2022-08-01T10:58:34;22.00;99.90
12384;DHT22;6256;63.808;20.336;2022-08-01T11:04:13;21.60;99.90
12384;DHT22;6256;63.808;20.336;2022-08-01T11:07:02;21.40;99.90
12384;DHT22;6256;63.808;20.336;2022-08-01T11:09:42;21.30;99.90
12384;DHT22;6256;63.808;20.336;2022-08-01T11:12:15;21.20;99.90
12384;DHT22;6256;63.808;20.336;2022-08-01T11:17:42;21.10;99.90
12384;DHT22;6256;63.808;20.336;2022-08-01T11:30:44;22.30;99.90
12384;DHT22;6256;63.808;20.336;2022-08-01T11:33:15;22.40;99.90
12384;DHT22;6256;63.808;20.336;2022-08-01T11:36:21;22.70;99.90
12384;DHT22;6256;63.808;20.336;2022-08-01T11:44:04;23.00;99.90
12384;DHT22;6256;63.808;20.336;2022-08-01T11:52:17;23.60;99.90
12384;DHT22;6256;63.808;20.336;2022-08-01T11:54:50;23.60;99.90
12384;DHT22;6256;63.808;20.336;2022-08-01T11:57:24;23.20;99.90
12384;DHT22;6256;63.808;20.336;2022-08-01T11:59:55;22.80;99.90
12384;DHT22;6256;63.808;20.336;2022-08-01T12:02:32;22.40;99.90
12384;DHT22;6256;63.808;20.336;2022-08-01T12:05:05;22.10;99.90
12384;DHT22;6256;63.808;20.336;2022-08-01T12:07:32;21.80;99.90
12384;DHT22;6256;63.808;20.336;2022-08-01T12:10:11;21.90;99.90
12384;DHT22;6256;63.808;20.336;2022-08-01T12:15:11;21.60;99.90
12384;DHT22;6256;63.808;20.336;2022-08-01T12:17:38;21.50;99.90
12384;DHT22;6256;63.808;20.336;2022-08-01T12:20:06;21.40;99.90
12384;DHT22;6256;63.808;20.336;2022-08-01T12:22:33;21.20;99.90
12384;DHT22;6256;63.808;20.336;2022-08-01T12:25:09;21.10;99.90
12384;DHT22;6256;63.808;20.336;2022-08-01T12:27:37;21.10;99.90
12384;DHT22;6256;63.808;20.336;2022-08-01T12:30:07;20.80;99.90
12384;DHT22;6256;63.808;20.336;2022-08-01T12:32:36;20.70;99.90
12384;DHT22;6256;63.808;20.336;2022-08-01T12:35:09;20.70;99.90
12384;DHT22;6256;63.808;20.336;2022-08-01T12:37:39;20.50;99.90
12384;DHT22;6256;63.808;20.336;2022-08-01T12:40:17;20.50;99.90
12384;DHT22;6256;63.808;20.336;2022-08-01T12:42:48;20.40;99.90
12384;DHT22;6256;63.808;20.336;2022-08-01T12:47:46;20.20;99.90
12384;DHT22;6256;63.808;20.336;2022-08-01T12:50:24;20.10;99.90
12384;DHT22;6256;63.808;20.336;2022-08-01T12:52:51;20.20;99.90
12384;DHT22;6256;63.808;20.336;2022-08-01T12:55:18;20.10;99.90
12384;DHT22;6256;63.808;20.336;2022-08-01T12:57:48;20.20;99.90
12384;DHT22;6256;63.808;20.336;2022-08-01T13:00:26;20.20;99.90
12384;DHT22;6256;63.808;20.336;2022-08-01T13:03:04;20.20;99.90
12384;DHT22;6256;63.808;20.336;2022-08-01T13:10:36;19.80;99.90
12384;DHT22;6256;63.808;20.336;2022-08-01T13:13:02;19.70;99.90
12384;DHT22;6256;63.808;20.336;2022-08-01T13:15:33;19.60;99.90
12384;DHT22;6256;63.808;20.336;2022-08-01T13:18:21;19.60;99.90
12384;DHT22;6256;63.808;20.336;2022-08-01T13:20:46;19.60;99.90
12384;DHT22;6256;63.808;20.336;2022-08-01T13:23:19;19.40;99.90
12384;DHT22;6256;63.808;20.336;2022-08-01T13:28:19;19.00;99.90
12384;DHT22;6256;63.808;20.336;2022-08-01T13:31:00;19.00;99.90
12384;DHT22;6256;63.808;20.336;2022-08-01T13:33:38;19.00;99.90
12384;DHT22;6256;63.808;20.336;2022-08-01T13:36:05;19.10;99.90
12384;DHT22;6256;63.808;20.336;2022-08-01T13:38:31;19.20;99.90
12384;DHT22;6256;63.808;20.336;2022-08-01T13:41:15;19.20;99.90
12384;DHT22;6256;63.808;20.336;2022-08-01T13:43:41;19.20;99.90
12384;DHT22;6256;63.808;20.336;2022-08-01T13:46:07;19.20;99.90
12384;DHT22;6256;63.808;20.336;2022-08-01T13:48:32;19.10;99.90
12384;DHT22;6256;63.808;20.336;2022-08-01T13:50:59;19.10;99.90
12384;DHT22;6256;63.808;20.336;2022-08-01T13:53:25;19.00;99.90
12384;DHT22;6256;63.808;20.336;2022-08-01T13:55:51;18.90;99.90
12384;DHT22;6256;63.808;20.336;2022-08-01T13:58:17;18.80;99.90
12384;DHT22;6256;63.808;20.336;2022-08-01T14:00:43;18.80;99.90
12384;DHT22;6256;63.808;20.336;2022-08-01T14:03:08;18.80;99.90
12384;DHT22;6256;63.808;20.336;2022-08-01T14:05:36;18.80;99.90
12384;DHT22;6256;63.808;20.336;2022-08-01T14:08:02;18.90;99.90
12384;DHT22;6256;63.808;20.336;2022-08-01T14:10:27;18.90;99.90
12384;DHT22;6256;63.808;20.336;2022-08-01T14:12:55;19.00;99.90
12384;DHT22;6256;63.808;20.336;2022-08-01T14:15:20;19.00;99.90
12384;DHT22;6256;63.808;20.336;2022-08-01T14:17:46;19.00;99.90
12384;DHT22;6256;63.808;20.336;2022-08-01T14:20:12;19.10;99.90
12384;DHT22;6256;63.808;20.336;2022-08-01T14:22:37;19.00;99.90
12384;DHT22;6256;63.808;20.336;2022-08-01T14:25:05;19.20;99.90
12384;DHT22;6256;63.808;20.336;2022-08-01T14:27:30;19.20;99.90
12384;DHT22;6256;63.808;20.336;2022-08-01T14:29:57;19.30;99.90
12384;DHT22;6256;63.808;20.336;2022-08-01T14:32:22;19.40;99.90
12384;DHT22;6256;63.808;20.336;2022-08-01T14:34:48;19.50;99.90
12384;DHT22;6256;63.808;20.336;2022-08-01T14:37:14;19.70;99.90
12384;DHT22;6256;63.808;20.336;2022-08-01T14:39:40;19.50;99.90
12384;DHT22;6256;63.808;20.336;2022-08-01T14:42:05;19.40;99.90
12384;DHT22;6256;63.808;20.336;2022-08-01T14:44:31;19.40;99.90
12384;DHT22;6256;63.808;20.336;2022-08-01T14:46:57;19.40;99.90
12384;DHT22;6256;63.808;20.336;2022-08-01T14:49:23;19.40;99.90
12384;DHT22;6256;63.808;20.336;2022-08-01T14:51:48;19.40;99.90
12384;DHT22;6256;63.808;20.336;2022-08-01T14:54:14;19.40;99.90
12384;DHT22;6256;63.808;20.336;2022-08-01T14:56:40;19.40;99.90
12384;DHT22;6256;63.808;20.336;2022-08-01T14:59:06;19.40;99.90
12384;DHT22;6256;63.808;20.336;2022-08-01T15:01:32;19.40;99.90
12384;DHT22;6256;63.808;20.336;2022-08-01T15:03:57;19.30;99.90
12384;DHT22;6256;63.808;20.336;2022-08-01T15:06:23;19.30;99.90
12384;DHT22;6256;63.808;20.336;2022-08-01T15:08:49;19.40;99.90
12384;DHT22;6256;63.808;20.336;2022-08-01T15:11:14;19.60;99.90
12384;DHT22;6256;63.808;20.336;2022-08-01T15:13:41;19.80;99.90
12384;DHT22;6256;63.808;20.336;2022-08-01T15:16:07;19.90;99.90
12384;DHT22;6256;63.808;20.336;2022-08-01T15:18:32;19.90;99.90
12384;DHT22;6256;63.808;20.336;2022-08-01T15:20:58;20.10;99.90
12384;DHT22;6256;63.808;20.336;2022-08-01T15:23:24;20.10;99.90
12384;DHT22;6256;63.808;20.336;2022-08-01T15:25:50;20.00;99.90
12384;DHT22;6256;63.808;20.336;2022-08-01T15:28:15;19.90;99.90
12384;DHT22;6256;63.808;20.336;2022-08-01T15:30:41;20.10;99.90
12384;DHT22;6256;63.808;20.336;2022-08-01T15:33:07;20.10;99.90
12384;DHT22;6256;63.808;20.336;2022-08-01T15:35:33;20.10;99.90
12384;DHT22;6256;63.808;20.336;2022-08-01T15:37:59;20.10;99.90
12384;DHT22;6256;63.808;20.336;2022-08-01T15:40:25;20.10;99.90
12384;DHT22;6256;63.808;20.336;2022-08-01T15:42:52;20.00;99.90
12384;DHT22;6256;63.808;20.336;2022-08-01T15:45:17;20.20;99.90
12384;DHT22;6256;63.808;20.336;2022-08-01T15:47:44;20.10;99.90
12384;DHT22;6256;63.808;20.336;2022-08-01T15:50:13;20.10;99.90
12384;DHT22;6256;63.808;20.336;2022-08-01T15:52:39;19.90;99.90
12384;DHT22;6256;63.808;20.336;2022-08-01T15:55:05;19.80;99.90
12384;DHT22;6256;63.808;20.336;2022-08-01T15:57:31;19.90;99.90
12384;DHT22;6256;63.808;20.336;2022-08-01T15:59:56;19.90;99.90
12384;DHT22;6256;63.808;20.336;2022-08-01T16:02:22;19.80;99.90
12384;DHT22;6256;63.808;20.336;2022-08-01T16:04:48;19.80;99.90
12384;DHT22;6256;63.808;20.336;2022-08-01T16:07:14;19.70;99.90
12384;DHT22;6256;63.808;20.336;2022-08-01T16:09:39;19.80;99.90
12384;DHT22;6256;63.808;20.336;2022-08-01T16:12:05;19.70;99.90
12384;DHT22;6256;63.808;20.336;2022-08-01T16:14:31;19.80;99.90
12384;DHT22;6256;63.808;20.336;2022-08-01T16:16:57;19.70;99.90
12384;DHT22;6256;63.808;20.336;2022-08-01T16:19:22;19.80;99.90
12384;DHT22;6256;63.808;20.336;2022-08-01T16:21:48;19.80;99.90
12384;DHT22;6256;63.808;20.336;2022-08-01T16:24:14;19.80;99.90
12384;DHT22;6256;63.808;20.336;2022-08-01T16:26:40;19.90;99.90
12384;DHT22;6256;63.808;20.336;2022-08-01T16:29:07;19.80;99.90
12384;DHT22;6256;63.808;20.336;2022-08-01T16:31:33;19.90;99.90
12384;DHT22;6256;63.808;20.336;2022-08-01T16:33:59;20.00;99.90
12384;DHT22;6256;63.808;20.336;2022-08-01T16:36:24;20.10;99.90
12384;DHT22;6256;63.808;20.336;2022-08-01T16:38:50;20.10;99.90
12384;DHT22;6256;63.808;20.336;2022-08-01T16:41:16;20.00;99.90
12384;DHT22;6256;63.808;20.336;2022-08-01T16:43:42;19.90;99.90
12384;DHT22;6256;63.808;20.336;2022-08-01T16:46:07;20.00;99.90